sensor_id;sensor_type;location;lat;lon;timestamp;temperature;humidity
19174;DHT22;9719;49.322;8.536;2023-08-12T00:00:55;26.40;98.80
19174;DHT22;9719;49.322;8.536;2023-08-12T00:05:57;26.30;98.80
19174;DHT22;9719;49.322;8.536;2023-08-12T00:11:02;26.40;99.00
19174;DHT22;9719;49.322;8.536;2023-08-12T00:16:04;26.40;99.10
19174;DHT22;9719;49.322;8.536;2023-08-12T00:21:07;26.40;99.10
19174;DHT22;9719;49.322;8.536;2023-08-12T00:26:11;26.40;99.20
19174;DHT22;9719;49.322;8.536;2023-08-12T00:31:13;26.40;99.20
19174;DHT22;9719;49.322;8.536;2023-08-12T00:36:14;26.40;99.20
19174;DHT22;9719;49.322;8.536;2023-08-12T00:41:17;26.40;99.20
19174;DHT22;9719;49.322;8.536;2023-08-12T00:46:19;26.40;99.20
19174;DHT22;9719;49.322;8.536;2023-08-12T00:51:21;26.40;99.20
19174;DHT22;9719;49.322;8.536;2023-08-12T00:56:26;26.40;99.10
19174;DHT22;9719;49.322;8.536;2023-08-12T01:01:27;26.50;99.00
19174;DHT22;9719;49.322;8.536;2023-08-12T01:06:29;26.50;99.00
19174;DHT22;9719;49.322;8.536;2023-08-12T01:11:37;26.50;98.90
19174;DHT22;9719;49.322;8.536;2023-08-12T01:16:44;26.50;98.90
19174;DHT22;9719;49.322;8.536;2023-08-12T01:21:49;26.50;98.90
19174;DHT22;9719;49.322;8.536;2023-08-12T01:26:55;26.50;99.00
19174;DHT22;9719;49.322;8.536;2023-08-12T01:32:01;26.50;98.80
19174;DHT22;9719;49.322;8.536;2023-08-12T01:37:05;26.50;98.80
19174;DHT22;9719;49.322;8.536;2023-08-12T01:42:10;26.50;98.70
19174;DHT22;9719;49.322;8.536;2023-08-12T01:47:12;26.40;98.60
19174;DHT22;9719;49.322;8.536;2023-08-12T01:52:14;26.50;98.60
19174;DHT22;9719;49.322;8.536;2023-08-12T01:57:17;26.50;98.70
19174;DHT22;9719;49.322;8.536;2023-08-12T02:02:19;26.40;98.80
19174;DHT22;9719;49.322;8.536;2023-08-12T02:07:21;26.40;98.90
19174;DHT22;9719;49.322;8.536;2023-08-12T02:12:24;26.40;99.00
19174;DHT22;9719;49.322;8.536;2023-08-12T02:17:25;26.40;99.00
19174;DHT22;9719;49.322;8.536;2023-08-12T02:22:27;26.30;99.10
19174;DHT22;9719;49.322;8.536;2023-08-12T02:27:31;26.30;99.10
19174;DHT22;9719;49.322;8.536;2023-08-12T02:32:32;26.30;99.20
19174;DHT22;9719;49.322;8.536;2023-08-12T02:37:34;26.30;99.20
19174;DHT22;9719;49.322;8.536;2023-08-12T02:42:37;26.30;99.20
19174;DHT22;9719;49.322;8.536;2023-08-12T02:47:39;26.30;99.20
19174;DHT22;9719;49.322;8.536;2023-08-12T02:52:40;26.30;99.20
19174;DHT22;9719;49.322;8.536;2023-08-12T02:57:43;26.20;99.10
19174;DHT22;9719;49.322;8.536;2023-08-12T03:02:45;26.20;99.10
19174;DHT22;9719;49.322;8.536;2023-08-12T03:07:47;26.20;99.20
19174;DHT22;9719;49.322;8.536;2023-08-12T03:12:50;26.20;99.30
19174;DHT22;9719;49.322;8.536;2023-08-12T03:17:51;26.20;99.40
19174;DHT22;9719;49.322;8.536;2023-08-12T03:22:53;26.20;99.50
19174;DHT22;9719;49.322;8.536;2023-08-12T03:27:56;26.20;99.50
19174;DHT22;9719;49.322;8.536;2023-08-12T03:32:57;26.10;99.40
19174;DHT22;9719;49.322;8.536;2023-08-12T03:37:59;26.10;99.60
19174;DHT22;9719;49.322;8.536;2023-08-12T03:43:02;26.10;99.60
19174;DHT22;9719;49.322;8.536;2023-08-12T03:48:05;26.10;99.60
19174;DHT22;9719;49.322;8.536;2023-08-12T03:53:07;26.10;99.60
19174;DHT22;9719;49.322;8.536;2023-08-12T03:58:10;26.10;99.70
19174;DHT22;9719;49.322;8.536;2023-08-12T04:03:13;26.10;99.70
19174;DHT22;9719;49.322;8.536;2023-08-12T04:08:14;26.00;99.60
19174;DHT22;9719;49.322;8.536;2023-08-12T04:13:17;26.00;99.70
19174;DHT22;9719;49.322;8.536;2023-08-12T04:18:19;26.00;99.80
19174;DHT22;9719;49.322;8.536;2023-08-12T04:23:21;26.00;99.90
19174;DHT22;9719;49.322;8.536;2023-08-12T04:28:24;26.00;99.80
19174;DHT22;9719;49.322;8.536;2023-08-12T04:33:26;26.00;99.90
19174;DHT22;9719;49.322;8.536;2023-08-12T04:38:27;26.00;99.90
19174;DHT22;9719;49.322;8.536;2023-08-12T04:43:30;26.00;99.90
19174;DHT22;9719;49.322;8.536;2023-08-12T04:48:32;26.00;99.90
19174;DHT22;9719;49.322;8.536;2023-08-12T04:53:33;25.90;99.90
19174;DHT22;9719;49.322;8.536;2023-08-12T04:58:36;25.90;99.90
19174;DHT22;9719;49.322;8.536;2023-08-12T05:03:38;26.00;99.90
19174;DHT22;9719;49.322;8.536;2023-08-12T05:08:40;26.00;99.90
19174;DHT22;9719;49.322;8.536;2023-08-12T05:13:43;25.90;99.90
19174;DHT22;9719;49.322;8.536;2023-08-12T05:18:45;25.90;99.90
19174;DHT22;9719;49.322;8.536;2023-08-12T05:23:46;25.90;99.90
19174;DHT22;9719;49.322;8.536;2023-08-12T05:28:49;25.90;99.90
19174;DHT22;9719;49.322;8.536;2023-08-12T05:33:51;25.90;99.90
19174;DHT22;9719;49.322;8.536;2023-08-12T05:38:53;25.90;99.90
19174;DHT22;9719;49.322;8.536;2023-08-12T05:43:56;25.90;99.90
19174;DHT22;9719;49.322;8.536;2023-08-12T05:48:57;25.90;99.90
19174;DHT22;9719;49.322;8.536;2023-08-12T05:53:59;25.90;99.90
19174;DHT22;9719;49.322;8.536;2023-08-12T05:59:02;25.90;99.90
19174;DHT22;9719;49.322;8.536;2023-08-12T06:04:04;25.90;99.90
19174;DHT22;9719;49.322;8.536;2023-08-12T06:09:06;25.90;99.90
19174;DHT22;9719;49.322;8.536;2023-08-12T06:14:09;25.90;99.90
19174;DHT22;9719;49.322;8.536;2023-08-12T06:19:11;25.90;99.90
19174;DHT22;9719;49.322;8.536;2023-08-12T06:24:13;25.90;99.90
19174;DHT22;9719;49.322;8.536;2023-08-12T06:29:16;25.90;99.90
19174;DHT22;9719;49.322;8.536;2023-08-12T06:34:17;25.90;99.90
19174;DHT22;9719;49.322;8.536;2023-08-12T06:39:19;26.00;99.90
19174;DHT22;9719;49.322;8.536;2023-08-12T06:44:22;26.00;99.90
19174;DHT22;9719;49.322;8.536;2023-08-12T06:49:24;26.00;99.90
19174;DHT22;9719;49.322;8.536;2023-08-12T06:54:25;26.00;99.90
19174;DHT22;9719;49.322;8.536;2023-08-12T06:59:28;26.00;99.90
19174;DHT22;9719;49.322;8.536;2023-08-12T07:04:30;26.00;99.90
19174;DHT22;9719;49.322;8.536;2023-08-12T07:09:31;26.00;99.90
19174;DHT22;9719;49.322;8.536;2023-08-12T07:14:35;26.00;99.90
19174;DHT22;9719;49.322;8.536;2023-08-12T07:19:36;26.00;99.90
19174;DHT22;9719;49.322;8.536;2023-08-12T07:24:38;26.00;99.90
19174;DHT22;9719;49.322;8.536;2023-08-12T07:29:41;26.00;99.90
19174;DHT22;9719;49.322;8.536;2023-08-12T07:34:43;26.00;99.90
19174;DHT22;9719;49.322;8.536;2023-08-12T07:39:44;26.00;99.90
19174;DHT22;9719;49.322;8.536;2023-08-12T07:44:47;26.10;99.90
19174;DHT22;9719;49.322;8.536;2023-08-12T07:49:49;26.10;99.90
19174;DHT22;9719;49.322;8.536;2023-08-12T07:54:51;26.10;99.90
19174;DHT22;9719;49.322;8.536;2023-08-12T07:59:54;26.10;99.90
19174;DHT22;9719;49.322;8.536;2023-08-12T08:04:55;26.10;99.90
19174;DHT22;9719;49.322;8.536;2023-08-12T08:09:58;26.20;99.90
19174;DHT22;9719;49.322;8.536;2023-08-12T08:15:01;26.20;99.90
19174;DHT22;9719;49.322;8.536;2023-08-12T08:20:04;26.20;99.90
19174;DHT22;9719;49.322;8.536;2023-08-12T08:25:07;26.20;99.90
19174;DHT22;9719;49.322;8.536;2023-08-12T08:30:11;26.20;99.90
19174;DHT22;9719;49.322;8.536;2023-08-12T08:35:12;26.20;99.90
19174;DHT22;9719;49.322;8.536;2023-08-12T08:40:14;26.30;99.90
19174;DHT22;9719;49.322;8.536;2023-08-12T08:45:17;26.30;99.90
19174;DHT22;9719;49.322;8.536;2023-08-12T08:50:20;26.30;99.90
19174;DHT22;9719;49.322;8.536;2023-08-12T08:55:23;26.30;99.90
19174;DHT22;9719;49.322;8.536;2023-08-12T09:00:26;26.40;99.90
19174;DHT22;9719;49.322;8.536;2023-08-12T09:05:30;26.40;99.90
19174;DHT22;9719;49.322;8.536;2023-08-12T09:10:33;26.40;99.90
19174;DHT22;9719;49.322;8.536;2023-08-12T09:15:37;26.40;99.90
19174;DHT22;9719;49.322;8.536;2023-08-12T09:20:39;26.40;99.90
19174;DHT22;9719;49.322;8.536;2023-08-12T09:25:42;26.40;99.90
19174;DHT22;9719;49.322;8.536;2023-08-12T09:30:50;26.50;99.90
19174;DHT22;9719;49.322;8.536;2023-08-12T09:35:53;26.50;99.90
19174;DHT22;9719;49.322;8.536;2023-08-12T09:40:57;26.60;99.90
19174;DHT22;9719;49.322;8.536;2023-08-12T09:46:00;26.60;99.90
19174;DHT22;9719;49.322;8.536;2023-08-12T09:51:02;26.70;99.90
19174;DHT22;9719;49.322;8.536;2023-08-12T09:56:06;26.70;99.90
19174;DHT22;9719;49.322;8.536;2023-08-12T10:01:10;26.80;99.90
19174;DHT22;9719;49.322;8.536;2023-08-12T10:06:13;26.80;99.90
19174;DHT22;9719;49.322;8.536;2023-08-12T10:11:16;26.80;99.90
19174;DHT22;9719;49.322;8.536;2023-08-12T10:16:19;26.80;99.90
19174;DHT22;9719;49.322;8.536;2023-08-12T10:21:22;26.90;99.90
19174;DHT22;9719;49.322;8.536;2023-08-12T10:26:24;26.90;99.90
19174;DHT22;9719;49.322;8.536;2023-08-12T10:31:28;26.90;99.90
19174;DHT22;9719;49.322;8.536;2023-08-12T10:36:31;26.90;99.90
19174;DHT22;9719;49.322;8.536;2023-08-12T10:41:35;26.90;99.90
19174;DHT22;9719;49.322;8.536;2023-08-12T10:46:38;26.90;99.90
19174;DHT22;9719;49.322;8.536;2023-08-12T10:51:41;27.00;99.90
19174;DHT22;9719;49.322;8.536;2023-08-12T10:57:07;27.00;99.90
19174;DHT22;9719;49.322;8.536;2023-08-12T11:02:16;27.00;99.90
19174;DHT22;9719;49.322;8.536;2023-08-12T11:07:18;27.00;99.90
19174;DHT22;9719;49.322;8.536;2023-08-12T11:12:29;27.00;99.90
19174;DHT22;9719;49.322;8.536;2023-08-12T11:17:36;27.00;99.90
19174;DHT22;9719;49.322;8.536;2023-08-12T11:22:40;27.00;99.90
19174;DHT22;9719;49.322;8.536;2023-08-12T11:27:43;26.90;99.90
19174;DHT22;9719;49.322;8.536;2023-08-12T11:32:48;26.90;99.90
19174;DHT22;9719;49.322;8.536;2023-08-12T11:37:52;26.90;99.90
19174;DHT22;9719;49.322;8.536;2023-08-12T11:42:54;26.90;99.90
19174;DHT22;9719;49.322;8.536;2023-08-12T11:47:57;26.80;99.90
19174;DHT22;9719;49.322;8.536;2023-08-12T11:52:59;26.80;99.90
19174;DHT22;9719;49.322;8.536;2023-08-12T11:58:00;26.80;99.90
19174;DHT22;9719;49.322;8.536;2023-08-12T12:03:04;26.80;99.90
19174;DHT22;9719;49.322;8.536;2023-08-12T12:08:06;26.80;99.90
19174;DHT22;9719;49.322;8.536;2023-08-12T12:13:10;26.80;99.90
19174;DHT22;9719;49.322;8.536;2023-08-12T12:18:14;26.80;99.90
19174;DHT22;9719;49.322;8.536;2023-08-12T12:23:17;26.80;99.90
19174;DHT22;9719;49.322;8.536;2023-08-12T12:28:18;26.80;99.90
19174;DHT22;9719;49.322;8.536;2023-08-12T12:33:21;26.80;99.90
19174;DHT22;9719;49.322;8.536;2023-08-12T12:38:23;26.80;99.90
19174;DHT22;9719;49.322;8.536;2023-08-12T12:43:25;26.80;99.90
19174;DHT22;9719;49.322;8.536;2023-08-12T12:48:28;26.80;99.90
19174;DHT22;9719;49.322;8.536;2023-08-12T12:53:29;26.80;99.90
19174;DHT22;9719;49.322;8.536;2023-08-12T12:58:31;26.80;99.90
19174;DHT22;9719;49.322;8.536;2023-08-12T13:03:34;26.80;99.90
19174;DHT22;9719;49.322;8.536;2023-08-12T13:08:36;26.80;99.90
19174;DHT22;9719;49.322;8.536;2023-08-12T13:13:38;26.80;99.90
19174;DHT22;9719;49.322;8.536;2023-08-12T13:18:41;26.80;99.90
19174;DHT22;9719;49.322;8.536;2023-08-12T13:23:43;26.80;99.90
19174;DHT22;9719;49.322;8.536;2023-08-12T13:28:44;26.80;99.90
19174;DHT22;9719;49.322;8.536;2023-08-12T13:33:47;26.80;99.90
19174;DHT22;9719;49.322;8.536;2023-08-12T13:38:49;26.80;99.90
19174;DHT22;9719;49.322;8.536;2023-08-12T13:43:51;26.80;99.90
19174;DHT22;9719;49.322;8.536;2023-08-12T13:48:54;26.80;99.90
19174;DHT22;9719;49.322;8.536;2023-08-12T13:53:55;26.80;99.90
19174;DHT22;9719;49.322;8.536;2023-08-12T13:58:57;26.80;99.90
19174;DHT22;9719;49.322;8.536;2023-08-12T14:04:00;26.80;99.90
19174;DHT22;9719;49.322;8.536;2023-08-12T14:09:01;26.80;99.90
19174;DHT22;9719;49.322;8.536;2023-08-12T14:14:03;26.70;99.90
19174;DHT22;9719;49.322;8.536;2023-08-12T14:19:06;26.70;99.90
19174;DHT22;9719;49.322;8.536;2023-08-12T14:24:09;26.70;99.90
19174;DHT22;9719;49.322;8.536;2023-08-12T14:29:10;26.70;99.90
19174;DHT22;9719;49.322;8.536;2023-08-12T14:34:13;26.70;99.90
19174;DHT22;9719;49.322;8.536;2023-08-12T14:39:15;26.70;99.90
19174;DHT22;9719;49.322;8.536;2023-08-12T14:44:17;26.60;99.90
19174;DHT22;9719;49.322;8.536;2023-08-12T14:49:20;26.60;99.90
19174;DHT22;9719;49.322;8.536;2023-08-12T14:54:21;26.60;99.90
19174;DHT22;9719;49.322;8.536;2023-08-12T14:59:23;26.60;99.90
19174;DHT22;9719;49.322;8.536;2023-08-12T15:04:26;26.60;99.90
19174;DHT22;9719;49.322;8.536;2023-08-12T15:09:28;26.70;99.90
19174;DHT22;9719;49.322;8.536;2023-08-12T15:14:30;26.60;99.90
19174;DHT22;9719;49.322;8.536;2023-08-12T15:19:32;26.60;99.90
19174;DHT22;9719;49.322;8.536;2023-08-12T15:24:34;26.70;99.90
19174;DHT22;9719;49.322;8.536;2023-08-12T15:29:36;26.70;99.90
19174;DHT22;9719;49.322;8.536;2023-08-12T15:34:39;26.70;99.90
19174;DHT22;9719;49.322;8.536;2023-08-12T15:39:40;26.80;99.90
19174;DHT22;9719;49.322;8.536;2023-08-12T15:44:42;26.80;99.90
19174;DHT22;9719;49.322;8.536;2023-08-12T15:49:45;26.80;99.90
19174;DHT22;9719;49.322;8.536;2023-08-12T15:54:47;26.80;99.90
19174;DHT22;9719;49.322;8.536;2023-08-12T15:59:48;26.80;99.90
19174;DHT22;9719;49.322;8.536;2023-08-12T16:04:51;26.80;99.90
19174;DHT22;9719;49.322;8.536;2023-08-12T16:09:53;26.80;99.90
19174;DHT22;9719;49.322;8.536;2023-08-12T16:14:55;26.80;99.90
19174;DHT22;9719;49.322;8.536;2023-08-12T16:19:58;26.80;99.90
19174;DHT22;9719;49.322;8.536;2023-08-12T16:25:01;26.80;99.90
19174;DHT22;9719;49.322;8.536;2023-08-12T16:30:03;26.80;99.90
19174;DHT22;9719;49.322;8.536;2023-08-12T16:35:07;26.80;99.90
19174;DHT22;9719;49.322;8.536;2023-08-12T16:40:09;26.80;99.90
19174;DHT22;9719;49.322;8.536;2023-08-12T16:45:12;26.80;99.90
19174;DHT22;9719;49.322;8.536;2023-08-12T16:50:15;26.80;99.90
19174;DHT22;9719;49.322;8.536;2023-08-12T16:55:17;26.90;99.90
19174;DHT22;9719;49.322;8.536;2023-08-12T17:00:19;26.90;99.90
19174;DHT22;9719;49.322;8.536;2023-08-12T17:05:22;26.90;99.90
19174;DHT22;9719;49.322;8.536;2023-08-12T17:10:23;26.90;99.90
19174;DHT22;9719;49.322;8.536;2023-08-12T17:15:25;26.90;99.90
19174;DHT22;9719;49.322;8.536;2023-08-12T17:20:29;26.90;99.90
19174;DHT22;9719;49.322;8.536;2023-08-12T17:25:31;26.90;99.90
19174;DHT22;9719;49.322;8.536;2023-08-12T17:30:33;26.90;99.90
19174;DHT22;9719;49.322;8.536;2023-08-12T17:35:37;26.90;99.90
19174;DHT22;9719;49.322;8.536;2023-08-12T17:40:39;26.80;99.90
19174;DHT22;9719;49.322;8.536;2023-08-12T17:45:41;26.80;99.90
19174;DHT22;9719;49.322;8.536;2023-08-12T17:50:44;26.80;99.90
19174;DHT22;9719;49.322;8.536;2023-08-12T17:55:45;26.80;99.90
19174;DHT22;9719;49.322;8.536;2023-08-12T18:00:47;26.80;99.90
19174;DHT22;9719;49.322;8.536;2023-08-12T18:05:50;26.80;99.90
19174;DHT22;9719;49.322;8.536;2023-08-12T18:10:52;26.80;99.90
19174;DHT22;9719;49.322;8.536;2023-08-12T18:15:53;26.70;99.90
19174;DHT22;9719;49.322;8.536;2023-08-12T18:20:56;26.70;99.90
19174;DHT22;9719;49.322;8.536;2023-08-12T18:25:58;26.70;99.90
19174;DHT22;9719;49.322;8.536;2023-08-12T18:31:00;26.70;99.90
19174;DHT22;9719;49.322;8.536;2023-08-12T18:36:03;26.70;99.90
19174;DHT22;9719;49.322;8.536;2023-08-12T18:41:05;26.70;99.90
19174;DHT22;9719;49.322;8.536;2023-08-12T18:46:07;26.70;99.90
19174;DHT22;9719;49.322;8.536;2023-08-12T18:51:10;26.70;99.90
19174;DHT22;9719;49.322;8.536;2023-08-12T18:56:11;26.70;99.90
19174;DHT22;9719;49.322;8.536;2023-08-12T19:01:13;26.60;99.90
19174;DHT22;9719;49.322;8.536;2023-08-12T19:06:16;26.60;99.90
19174;DHT22;9719;49.322;8.536;2023-08-12T19:11:17;26.60;99.90
19174;DHT22;9719;49.322;8.536;2023-08-12T19:16:21;26.50;99.90
19174;DHT22;9719;49.322;8.536;2023-08-12T19:21:24;26.50;99.90
19174;DHT22;9719;49.322;8.536;2023-08-12T19:26:26;26.50;99.90
19174;DHT22;9719;49.322;8.536;2023-08-12T19:31:27;26.50;99.90
19174;DHT22;9719;49.322;8.536;2023-08-12T19:36:30;26.50;99.90
19174;DHT22;9719;49.322;8.536;2023-08-12T19:41:32;26.50;99.90
19174;DHT22;9719;49.322;8.536;2023-08-12T19:46:34;26.50;99.90
19174;DHT22;9719;49.322;8.536;2023-08-12T19:51:37;26.50;99.90
19174;DHT22;9719;49.322;8.536;2023-08-12T19:56:38;26.50;99.90
19174;DHT22;9719;49.322;8.536;2023-08-12T20:01:40;26.50;99.90
19174;DHT22;9719;49.322;8.536;2023-08-12T20:06:43;26.50;99.90
19174;DHT22;9719;49.322;8.536;2023-08-12T20:11:45;26.50;99.90
19174;DHT22;9719;49.322;8.536;2023-08-12T20:16:46;26.50;99.90
19174;DHT22;9719;49.322;8.536;2023-08-12T20:21:49;26.50;99.90
19174;DHT22;9719;49.322;8.536;2023-08-12T20:26:51;26.50;99.90
19174;DHT22;9719;49.322;8.536;2023-08-12T20:31:53;26.50;99.90
19174;DHT22;9719;49.322;8.536;2023-08-12T20:36:56;26.50;99.90
19174;DHT22;9719;49.322;8.536;2023-08-12T20:41:57;26.50;99.90
19174;DHT22;9719;49.322;8.536;2023-08-12T20:46:59;26.50;99.90
19174;DHT22;9719;49.322;8.536;2023-08-12T20:52:02;26.40;99.90
19174;DHT22;9719;49.322;8.536;2023-08-12T20:57:04;26.40;99.90
19174;DHT22;9719;49.322;8.536;2023-08-12T21:02:06;26.40;99.90
19174;DHT22;9719;49.322;8.536;2023-08-12T21:07:09;26.40;99.90
19174;DHT22;9719;49.322;8.536;2023-08-12T21:12:11;26.30;99.90
19174;DHT22;9719;49.322;8.536;2023-08-12T21:17:12;26.40;99.90
19174;DHT22;9719;49.322;8.536;2023-08-12T21:22:15;26.30;99.90
19174;DHT22;9719;49.322;8.536;2023-08-12T21:27:17;26.30;99.90
19174;DHT22;9719;49.322;8.536;2023-08-12T21:32:19;26.30;99.90
19174;DHT22;9719;49.322;8.536;2023-08-12T21:37:22;26.30;99.90
19174;DHT22;9719;49.322;8.536;2023-08-12T21:42:23;26.30;99.90
19174;DHT22;9719;49.322;8.536;2023-08-12T21:47:25;26.30;99.90
19174;DHT22;9719;49.322;8.536;2023-08-12T21:52:28;26.30;99.90
19174;DHT22;9719;49.322;8.536;2023-08-12T21:57:30;26.30;99.90
19174;DHT22;9719;49.322;8.536;2023-08-12T22:02:31;26.30;99.90
19174;DHT22;9719;49.322;8.536;2023-08-12T22:07:35;26.30;99.90
19174;DHT22;9719;49.322;8.536;2023-08-12T22:12:37;26.30;99.90
19174;DHT22;9719;49.322;8.536;2023-08-12T22:17:38;26.30;99.90
19174;DHT22;9719;49.322;8.536;2023-08-12T22:22:43;26.30;99.90
19174;DHT22;9719;49.322;8.536;2023-08-12T22:27:45;26.30;99.90
19174;DHT22;9719;49.322;8.536;2023-08-12T22:32:47;26.30;99.90
19174;DHT22;9719;49.322;8.536;2023-08-12T22:37:50;26.30;99.90
19174;DHT22;9719;49.322;8.536;2023-08-12T22:42:51;26.30;99.90
19174;DHT22;9719;49.322;8.536;2023-08-12T22:47:53;26.30;99.90
19174;DHT22;9719;49.322;8.536;2023-08-12T22:52:56;26.20;99.90
19174;DHT22;9719;49.322;8.536;2023-08-12T22:57:58;26.20;99.90
19174;DHT22;9719;49.322;8.536;2023-08-12T23:03:00;26.20;99.90
19174;DHT22;9719;49.322;8.536;2023-08-12T23:08:04;26.20;99.90
19174;DHT22;9719;49.322;8.536;2023-08-12T23:13:06;26.10;99.90
19174;DHT22;9719;49.322;8.536;2023-08-12T23:18:07;26.10;99.90
19174;DHT22;9719;49.322;8.536;2023-08-12T23:23:10;26.10;99.90
19174;DHT22;9719;49.322;8.536;2023-08-12T23:28:12;26.10;99.90
19174;DHT22;9719;49.322;8.536;2023-08-12T23:33:14;26.10;99.90
19174;DHT22;9719;49.322;8.536;2023-08-12T23:38:17;26.10;99.90
19174;DHT22;9719;49.322;8.536;2023-08-12T23:43:18;26.10;99.90
19174;DHT22;9719;49.322;8.536;2023-08-12T23:48:20;26.10;99.90
19174;DHT22;9719;49.322;8.536;2023-08-12T23:53:23;26.10;99.90
19174;DHT22;9719;49.322;8.536;2023-08-12T23:58:26;26.10;99.90
